createdAt,value
2018-12-01T00:01:36.453Z,16.63
2018-12-01T00:04:04.800Z,17.13
2018-12-01T00:06:33.149Z,15.57
2018-12-01T00:09:01.478Z,18.37
2018-12-01T00:11:29.821Z,16.37
2018-12-01T00:13:58.147Z,17.37
2018-12-01T00:16:26.487Z,16.77
2018-12-01T00:18:54.836Z,16.97
2018-12-01T00:21:23.175Z,17.43
2018-12-01T00:23:51.515Z,16.73
2018-12-01T00:26:19.861Z,17.90
2018-12-01T00:28:48.201Z,17.60
2018-12-01T00:31:16.547Z,17.60
2018-12-01T00:33:44.873Z,16.77
2018-12-01T00:36:13.206Z,16.20
2018-12-01T00:38:41.558Z,16.57
2018-12-01T00:41:09.888Z,18.77
2018-12-01T00:43:38.219Z,13.27
2018-12-01T00:46:06.547Z,14.47
2018-12-01T00:48:34.886Z,15.47
2018-12-01T00:51:03.689Z,17.17
2018-12-01T00:53:32.030Z,14.00
2018-12-01T00:56:00.363Z,14.70
2018-12-01T00:58:28.701Z,16.33
2018-12-01T01:00:57.040Z,16.70
2018-12-01T01:03:25.598Z,14.23
2018-12-01T01:05:53.749Z,15.87
2018-12-01T01:08:22.078Z,15.33
2018-12-01T01:10:50.434Z,14.60
2018-12-01T01:13:18.768Z,14.93
2018-12-01T01:15:47.090Z,15.63
2018-12-01T01:18:15.425Z,16.03
2018-12-01T01:20:43.750Z,16.20
2018-12-01T01:23:12.100Z,14.13
2018-12-01T01:25:40.444Z,14.70
2018-12-01T01:28:08.797Z,15.37
2018-12-01T01:30:37.138Z,15.57
2018-12-01T01:33:05.485Z,16.43
2018-12-01T01:35:34.137Z,15.97
2018-12-01T01:38:02.470Z,14.63
2018-12-01T01:40:30.791Z,15.53
2018-12-01T01:42:59.130Z,15.03
2018-12-01T01:45:27.452Z,15.73
2018-12-01T01:47:55.793Z,15.37
2018-12-01T01:50:24.124Z,16.10
2018-12-01T01:52:52.458Z,17.23
2018-12-01T01:55:20.782Z,15.47
2018-12-01T01:57:49.133Z,14.83
2018-12-01T02:00:17.484Z,14.13
2018-12-01T02:02:45.803Z,16.27
2018-12-01T02:05:14.132Z,13.23
2018-12-01T02:07:42.460Z,16.23
2018-12-01T02:10:10.784Z,19.37
2018-12-01T02:12:39.119Z,15.13
2018-12-01T02:15:07.464Z,15.03
2018-12-01T02:17:35.794Z,16.90
2018-12-01T02:20:04.137Z,16.57
2018-12-01T02:22:32.475Z,14.50
2018-12-01T02:25:00.803Z,17.33
2018-12-01T02:27:29.130Z,14.00
2018-12-01T02:29:57.464Z,15.20
2018-12-01T02:32:25.805Z,17.87
2018-12-01T02:34:54.135Z,14.57
2018-12-01T02:37:22.463Z,15.30
2018-12-01T02:39:50.787Z,15.87
2018-12-01T02:42:19.113Z,14.43
2018-12-01T02:44:59.308Z,14.07
2018-12-01T02:47:27.642Z,16.00
2018-12-01T02:49:55.978Z,12.53
2018-12-01T02:52:24.310Z,15.87
2018-12-01T02:54:52.635Z,15.43
2018-12-01T02:57:20.969Z,15.43
2018-12-01T02:59:49.296Z,15.07
2018-12-01T03:02:17.633Z,16.83
2018-12-01T03:04:45.965Z,14.87
2018-12-01T03:07:14.284Z,17.80
2018-12-01T03:09:42.638Z,13.10
2018-12-01T03:12:10.943Z,12.53
2018-12-01T03:14:39.287Z,14.00
2018-12-01T03:17:07.603Z,12.70
2018-12-01T03:19:35.957Z,12.53
2018-12-01T03:22:04.261Z,14.90
2018-12-01T03:24:32.593Z,13.07
2018-12-01T03:27:00.955Z,17.80
2018-12-01T03:29:29.340Z,15.57
2018-12-01T03:31:57.666Z,14.10
2018-12-01T03:34:26.010Z,15.77
2018-12-01T03:36:54.337Z,13.97
2018-12-01T03:39:22.665Z,14.50
2018-12-01T03:41:50.998Z,14.43
2018-12-01T03:44:19.323Z,16.07
2018-12-01T03:46:47.665Z,16.70
2018-12-01T03:49:16.223Z,18.40
2018-12-01T03:51:44.324Z,13.27
2018-12-01T03:54:12.645Z,19.77
2018-12-01T03:56:40.975Z,12.73
2018-12-01T03:59:09.304Z,13.13
2018-12-01T04:01:37.637Z,15.47
2018-12-01T04:04:06.188Z,14.87
2018-12-01T04:06:34.297Z,14.87
2018-12-01T04:09:02.634Z,11.80
2018-12-01T04:11:30.963Z,13.70
2018-12-01T04:13:59.290Z,17.73
2018-12-01T04:16:27.628Z,15.07
2018-12-01T04:18:55.972Z,14.60
2018-12-01T04:21:24.299Z,13.60
2018-12-01T04:23:52.629Z,16.40
2018-12-01T04:26:20.962Z,16.50
2018-12-01T04:28:49.296Z,14.00
2018-12-01T04:31:17.667Z,15.43
2018-12-01T04:33:46.012Z,13.20
2018-12-01T04:36:14.343Z,14.80
2018-12-01T04:38:42.677Z,19.67
2018-12-01T04:41:11.018Z,14.57
2018-12-01T04:43:39.350Z,14.33
2018-12-01T04:46:07.669Z,14.87
2018-12-01T04:48:36.016Z,19.07
2018-12-01T04:51:04.344Z,17.40
2018-12-01T04:53:32.693Z,16.17
2018-12-01T04:56:01.029Z,20.13
2018-12-01T04:58:29.359Z,18.77
2018-12-01T05:00:57.686Z,14.83
2018-12-01T05:03:26.020Z,14.60
2018-12-01T05:05:54.361Z,14.63
2018-12-01T05:08:22.690Z,14.97
2018-12-01T05:10:51.030Z,16.93
2018-12-01T05:13:19.363Z,16.70
2018-12-01T05:15:47.691Z,17.63
2018-12-01T05:18:16.029Z,18.20
2018-12-01T05:20:44.367Z,17.47
2018-12-01T05:23:12.703Z,18.80
2018-12-01T05:25:41.045Z,19.60
2018-12-01T05:28:09.378Z,20.30
2018-12-01T05:30:37.720Z,17.77
2018-12-01T05:33:06.055Z,21.90
2018-12-01T05:35:34.402Z,17.67
2018-12-01T05:38:02.734Z,19.10
2018-12-01T05:40:31.059Z,16.60
2018-12-01T05:42:59.398Z,16.40
2018-12-01T05:45:27.730Z,15.73
2018-12-01T05:47:56.082Z,37.97
2018-12-01T05:50:24.417Z,44.53
2018-12-01T05:52:52.763Z,17.67
2018-12-01T05:55:21.099Z,20.70
2018-12-01T05:57:49.439Z,18.43
2018-12-01T06:00:17.775Z,17.00
2018-12-01T06:02:46.109Z,18.70
2018-12-01T06:05:14.439Z,24.43
2018-12-01T06:07:42.774Z,19.40
2018-12-01T06:10:11.107Z,21.63
2018-12-01T06:12:39.437Z,17.83
2018-12-01T06:15:07.771Z,20.20
2018-12-01T06:17:36.104Z,19.50
2018-12-01T06:20:04.441Z,20.33
2018-12-01T06:22:32.774Z,17.13
2018-12-01T06:25:01.110Z,19.73
2018-12-01T06:27:29.455Z,19.33
2018-12-01T06:29:57.795Z,18.77
2018-12-01T06:32:26.263Z,16.67
2018-12-01T06:34:54.596Z,20.83
2018-12-01T06:37:22.932Z,21.03
2018-12-01T06:39:51.291Z,20.00
2018-12-01T06:42:19.641Z,19.80
2018-12-01T06:44:47.986Z,20.50
2018-12-01T06:47:16.329Z,21.37
2018-12-01T06:49:44.644Z,32.90
2018-12-01T06:52:12.990Z,21.23
2018-12-01T06:54:41.324Z,21.90
2018-12-01T06:57:09.674Z,25.20
2018-12-01T06:59:38.005Z,28.00
2018-12-01T07:02:06.356Z,23.83
2018-12-01T07:04:34.696Z,19.30
2018-12-01T07:07:03.032Z,27.63
2018-12-01T07:09:31.377Z,22.67
2018-12-01T07:11:59.754Z,27.97
2018-12-01T07:14:28.137Z,28.03
2018-12-01T07:16:56.472Z,25.50
2018-12-01T07:19:25.294Z,20.30
2018-12-01T07:21:53.425Z,21.00
2018-12-01T07:24:21.763Z,19.63
2018-12-01T07:26:50.099Z,21.50
2018-12-01T07:29:18.429Z,21.07
2018-12-01T07:31:46.773Z,22.47
2018-12-01T07:34:15.107Z,23.67
2018-12-01T07:36:43.444Z,22.73
2018-12-01T07:39:11.780Z,24.80
2018-12-01T07:41:40.116Z,22.00
2018-12-01T07:44:08.456Z,26.67
2018-12-01T07:46:36.792Z,24.87
2018-12-01T07:49:05.175Z,28.07
2018-12-01T07:51:33.513Z,24.33
2018-12-01T07:54:02.320Z,24.63
2018-12-01T07:56:30.685Z,24.93
2018-12-01T07:58:59.030Z,25.43
2018-12-01T08:01:27.378Z,25.83
2018-12-01T08:03:55.728Z,25.43
2018-12-01T08:06:24.574Z,21.60
2018-12-01T08:08:52.600Z,25.87
2018-12-01T08:11:21.354Z,26.13
2018-12-01T08:13:49.670Z,22.27
2018-12-01T08:16:18.024Z,23.67
2018-12-01T08:18:46.380Z,22.57
2018-12-01T08:21:15.692Z,26.33
2018-12-01T08:23:44.040Z,22.73
2018-12-01T08:26:12.411Z,24.43
2018-12-01T08:28:40.743Z,32.43
2018-12-01T08:31:09.093Z,26.90
2018-12-01T08:33:37.483Z,30.70
2018-12-01T08:36:05.854Z,24.13
2018-12-01T08:38:34.955Z,28.90
2018-12-01T08:41:03.304Z,26.50
2018-12-01T08:43:31.640Z,30.97
2018-12-01T08:46:00.241Z,31.97
2018-12-01T08:48:28.355Z,39.07
2018-12-01T08:50:56.769Z,30.10
2018-12-01T08:53:25.441Z,26.23
2018-12-01T08:55:53.800Z,30.73
2018-12-01T08:58:24.563Z,25.83
2018-12-01T09:00:52.896Z,34.03
2018-12-01T09:03:21.235Z,31.03
2018-12-01T09:05:49.573Z,34.17
2018-12-01T09:08:17.936Z,34.60
2018-12-01T09:10:46.291Z,34.93
2018-12-01T09:13:14.630Z,33.87
2018-12-01T09:15:42.973Z,29.30
2018-12-01T09:18:11.311Z,36.13
2018-12-01T09:20:39.684Z,66.00
2018-12-01T09:23:08.042Z,35.40
2018-12-01T09:25:36.372Z,32.83
2018-12-01T09:28:05.741Z,32.00
2018-12-01T09:30:34.073Z,34.33
2018-12-01T09:33:02.678Z,30.00
2018-12-01T09:35:30.845Z,31.40
2018-12-01T09:37:59.186Z,29.90
2018-12-01T09:40:27.566Z,25.87
2018-12-01T09:42:56.541Z,26.67
2018-12-01T09:45:24.896Z,33.33
2018-12-01T09:47:53.239Z,29.90
2018-12-01T09:50:21.593Z,28.10
2018-12-01T09:52:49.913Z,30.07
2018-12-01T09:55:18.285Z,28.40
2018-12-01T09:57:46.622Z,31.23
2018-12-01T10:00:14.982Z,31.13
2018-12-01T10:02:43.360Z,29.20
2018-12-01T10:05:11.719Z,32.03
2018-12-01T10:07:40.072Z,36.40
2018-12-01T10:10:08.409Z,33.70
2018-12-01T10:12:36.758Z,32.50
2018-12-01T10:15:05.088Z,32.57
2018-12-01T10:17:35.286Z,27.87
2018-12-01T10:20:04.171Z,28.37
2018-12-01T10:22:32.526Z,29.87
2018-12-01T10:25:00.884Z,28.10
2018-12-01T10:27:29.746Z,29.00
2018-12-01T10:29:57.810Z,30.07
2018-12-01T10:32:26.148Z,27.63
2018-12-01T10:34:54.520Z,23.37
2018-12-01T10:37:22.917Z,28.83
2018-12-01T10:39:51.246Z,26.43
2018-12-01T10:42:19.842Z,27.27
2018-12-01T10:44:48.194Z,28.53
2018-12-01T10:47:16.819Z,29.77
2018-12-01T10:49:44.935Z,27.43
2018-12-01T10:52:13.833Z,28.10
2018-12-01T10:54:42.980Z,40.77
2018-12-01T10:57:11.605Z,33.43
2018-12-01T10:59:38.425Z,40.67
2018-12-01T11:02:06.757Z,29.17
2018-12-01T11:04:35.138Z,26.30
2018-12-01T11:07:03.716Z,32.57
2018-12-01T11:09:32.105Z,70.47
2018-12-01T11:12:00.933Z,27.00
2018-12-01T11:14:30.021Z,27.97
2018-12-01T11:16:58.383Z,31.80
2018-12-01T11:19:26.516Z,34.07
2018-12-01T11:21:55.542Z,28.23
2018-12-01T11:24:23.906Z,31.27
2018-12-01T11:26:52.960Z,28.87
2018-12-01T11:29:21.287Z,26.00
2018-12-01T11:31:50.449Z,31.93
2018-12-01T11:34:18.844Z,32.23
2018-12-01T11:36:47.199Z,37.67
2018-12-01T11:39:16.013Z,27.47
2018-12-01T11:41:44.443Z,31.73
2018-12-01T11:44:12.779Z,25.90
2018-12-01T11:46:41.128Z,25.57
2018-12-01T11:49:09.724Z,27.47
2018-12-01T11:51:38.105Z,31.27
2018-12-01T11:54:06.470Z,29.87
2018-12-01T11:56:34.887Z,25.57
2018-12-01T11:59:03.255Z,27.03
2018-12-01T12:01:31.624Z,28.57
2018-12-01T12:04:00.118Z,30.00
2018-12-01T12:06:28.841Z,27.40
2018-12-01T12:08:57.691Z,27.20
2018-12-01T12:11:26.548Z,31.73
2018-12-01T12:13:54.964Z,159.67
2018-12-01T12:16:23.542Z,29.83
2018-12-01T12:18:52.470Z,27.90
2018-12-01T12:21:21.435Z,29.77
2018-12-01T12:23:49.926Z,30.67
2018-12-01T12:26:18.274Z,33.07
2018-12-01T12:28:46.691Z,27.87
2018-12-01T12:31:15.195Z,29.37
2018-12-01T12:33:43.566Z,33.87
2018-12-01T12:36:13.806Z,30.30
2018-12-01T12:38:42.035Z,30.03
2018-12-01T12:41:10.539Z,42.47
2018-12-01T12:43:38.873Z,30.33
2018-12-01T12:46:08.050Z,26.13
2018-12-01T12:48:36.635Z,26.80
2018-12-01T12:51:05.057Z,33.07
2018-12-01T12:53:33.775Z,28.57
2018-12-01T12:56:01.885Z,25.40
2018-12-01T12:58:30.425Z,30.17
2018-12-01T13:00:59.215Z,38.67
2018-12-01T13:03:27.586Z,29.33
2018-12-01T13:05:56.900Z,29.17
2018-12-01T13:08:25.315Z,22.40
2018-12-01T13:10:53.730Z,29.33
2018-12-01T13:13:22.088Z,25.10
2018-12-01T13:15:50.538Z,30.60
2018-12-01T13:18:19.427Z,28.03
2018-12-01T13:20:48.153Z,26.33
2018-12-01T13:23:16.522Z,42.10
2018-12-01T13:25:44.889Z,26.20
2018-12-01T13:28:13.845Z,33.90
2018-12-01T13:30:42.164Z,34.67
2018-12-01T13:33:10.495Z,32.73
2018-12-01T13:35:38.858Z,57.13
2018-12-01T13:38:07.172Z,43.27
2018-12-01T13:40:35.516Z,36.87
2018-12-01T13:43:04.174Z,39.13
2018-12-01T13:45:32.505Z,39.27
2018-12-01T13:48:00.842Z,41.83
2018-12-01T13:50:30.104Z,39.90
2018-12-01T13:52:58.440Z,34.80
2018-12-01T13:55:26.765Z,37.10
2018-12-01T13:57:55.094Z,40.70
2018-12-01T14:00:23.497Z,39.00
2018-12-01T14:02:51.830Z,42.10
2018-12-01T14:05:20.178Z,41.37
2018-12-01T14:07:48.524Z,36.37
2018-12-01T14:10:16.935Z,42.87
2018-12-01T14:12:45.310Z,55.63
2018-12-01T14:15:13.718Z,35.63
2018-12-01T14:17:42.082Z,59.17
2018-12-01T14:23:04.504Z,37.17
2018-12-01T14:25:33.122Z,43.70
2018-12-01T14:28:01.516Z,41.43
2018-12-01T14:30:29.891Z,44.70
2018-12-01T14:32:58.271Z,42.63
2018-12-01T14:35:26.626Z,37.93
2018-12-01T14:37:55.323Z,39.57
2018-12-01T14:40:24.492Z,81.00
2018-12-01T14:42:52.789Z,59.20
2018-12-01T14:45:21.118Z,50.33
2018-12-01T14:47:49.497Z,55.93
2018-12-01T14:50:18.083Z,50.27
2018-12-01T14:52:46.214Z,49.03
2018-12-01T14:55:14.610Z,100.73
2018-12-01T14:57:42.931Z,46.53
2018-12-01T15:00:11.271Z,52.20
2018-12-01T15:02:39.626Z,56.63
2018-12-01T15:05:07.963Z,55.03
2018-12-01T15:07:36.324Z,65.43
2018-12-01T15:10:04.657Z,63.77
2018-12-01T15:12:32.995Z,69.53
2018-12-01T15:15:01.394Z,68.30
2018-12-01T15:17:30.419Z,49.63
2018-12-01T15:19:59.033Z,52.60
2018-12-01T15:22:27.128Z,56.58
2018-12-01T15:24:55.488Z,64.47
2018-12-01T15:27:23.872Z,50.50
2018-12-01T15:29:52.237Z,52.67
2018-12-01T15:32:20.655Z,52.50
2018-12-01T15:34:49.110Z,52.60
2018-12-01T15:37:17.488Z,52.97
2018-12-01T15:39:45.820Z,57.03
2018-12-01T15:42:14.183Z,53.90
2018-12-01T15:44:42.525Z,55.07
2018-12-01T15:47:10.945Z,47.13
2018-12-01T15:49:39.375Z,53.10
2018-12-01T15:52:07.706Z,55.13
2018-12-01T15:54:36.081Z,51.07
2018-12-01T15:57:04.419Z,58.27
2018-12-01T15:59:32.830Z,43.27
2018-12-01T16:02:01.167Z,49.33
2018-12-01T16:04:29.594Z,46.60
2018-12-01T16:06:57.929Z,88.83
2018-12-01T16:09:26.308Z,52.00
2018-12-01T16:11:54.635Z,52.33
2018-12-01T16:14:23.003Z,48.00
2018-12-01T16:16:51.364Z,44.37
2018-12-01T16:19:19.915Z,49.23
2018-12-01T16:21:48.044Z,50.10
2018-12-01T16:24:16.417Z,49.23
2018-12-01T16:26:44.827Z,59.10
2018-12-01T16:29:13.174Z,51.50
2018-12-01T16:31:41.522Z,46.27
2018-12-01T16:34:09.867Z,52.03
2018-12-01T16:36:38.236Z,52.53
2018-12-01T16:39:06.702Z,53.10
2018-12-01T16:41:35.521Z,49.30
2018-12-01T16:44:03.709Z,45.03
2018-12-01T16:46:32.065Z,53.37
2018-12-01T16:49:00.469Z,73.43
2018-12-01T16:51:28.790Z,52.43
2018-12-01T16:53:57.128Z,52.70
2018-12-01T16:56:25.662Z,46.83
2018-12-01T16:58:54.007Z,43.97
2018-12-01T17:01:22.355Z,48.10
2018-12-01T17:03:50.852Z,48.40
2018-12-01T17:06:19.280Z,48.23
2018-12-01T17:08:47.745Z,49.13
2018-12-01T17:11:16.228Z,59.90
2018-12-01T17:13:44.650Z,74.23
2018-12-01T17:16:12.974Z,61.50
2018-12-01T17:18:41.440Z,60.27
2018-12-01T17:21:10.469Z,59.30
2018-12-01T17:23:39.019Z,56.83
2018-12-01T17:26:07.125Z,57.13
2018-12-01T17:28:35.574Z,69.27
2018-12-01T17:31:03.954Z,83.13
2018-12-01T17:33:32.717Z,81.57
2018-12-01T17:36:01.778Z,66.10
2018-12-01T17:38:30.116Z,70.67
2018-12-01T17:40:58.474Z,119.53
2018-12-01T17:43:26.865Z,93.43
2018-12-01T17:45:55.220Z,84.77
2018-12-01T17:48:23.637Z,71.87
2018-12-01T17:50:52.048Z,87.03
2018-12-01T17:53:20.427Z,91.97
2018-12-01T17:55:48.797Z,92.43
2018-12-01T17:58:17.194Z,103.90
2018-12-01T18:00:45.537Z,141.43
2018-12-01T18:03:13.904Z,82.27
2018-12-01T18:05:43.225Z,79.67
2018-12-01T18:08:11.672Z,70.83
2018-12-01T18:10:39.975Z,72.87
2018-12-01T18:13:08.367Z,66.00
2018-12-01T18:15:36.698Z,69.33
2018-12-01T18:18:05.022Z,66.37
2018-12-01T18:20:33.359Z,75.20
2018-12-01T18:23:01.881Z,74.00
2018-12-01T18:25:30.241Z,68.50
2018-12-01T18:27:58.624Z,71.53
2018-12-01T18:30:26.973Z,66.00
2018-12-01T18:32:55.324Z,60.10
2018-12-01T18:35:23.691Z,61.43
2018-12-01T18:37:52.021Z,77.10
2018-12-01T18:40:20.382Z,76.40
2018-12-01T18:42:48.719Z,62.00
2018-12-01T18:45:17.059Z,60.07
2018-12-01T18:47:45.404Z,59.13
2018-12-01T18:50:13.759Z,58.07
2018-12-01T18:52:42.085Z,57.67
2018-12-01T18:55:10.426Z,64.97
2018-12-01T18:57:38.769Z,64.30
2018-12-01T19:00:07.120Z,64.17
2018-12-01T19:02:35.619Z,64.63
2018-12-01T19:05:03.978Z,107.03
2018-12-01T19:07:32.304Z,120.00
2018-12-01T19:10:00.668Z,115.23
2018-12-01T19:12:29.017Z,81.20
2018-12-01T19:14:57.430Z,73.80
2018-12-01T19:17:25.776Z,80.30
2018-12-01T19:19:55.176Z,84.13
2018-12-01T19:22:22.568Z,81.97
2018-12-01T19:24:50.934Z,78.87
2018-12-01T19:27:19.280Z,71.43
2018-12-01T19:29:47.610Z,82.13
2018-12-01T19:32:15.953Z,73.23
2018-12-01T19:34:44.301Z,75.50
2018-12-01T19:37:12.645Z,79.13
2018-12-01T19:39:41.105Z,75.00
2018-12-01T19:42:09.434Z,84.27
2018-12-01T19:44:37.770Z,82.77
2018-12-01T19:47:06.096Z,73.00
2018-12-01T19:49:34.431Z,72.53
2018-12-01T19:52:03.287Z,79.20
2018-12-01T19:54:31.350Z,75.67
2018-12-01T19:56:59.697Z,74.53
2018-12-01T19:59:28.036Z,70.43
2018-12-01T20:01:56.411Z,72.47
2018-12-01T20:04:24.849Z,73.10
2018-12-01T20:06:53.191Z,73.63
2018-12-01T20:09:21.503Z,72.40
2018-12-01T20:11:49.989Z,76.03
2018-12-01T20:14:18.369Z,74.23
2018-12-01T20:16:46.707Z,73.77
2018-12-01T20:19:15.073Z,73.77
2018-12-01T20:21:44.003Z,70.87
2018-12-01T20:24:12.515Z,74.90
2018-12-01T20:26:40.852Z,79.37
2018-12-01T20:29:09.186Z,74.50
2018-12-01T20:31:37.600Z,78.53
2018-12-01T20:34:06.042Z,79.10
2018-12-01T20:36:34.366Z,78.93
2018-12-01T20:39:02.713Z,78.87
2018-12-01T20:41:31.044Z,72.57
2018-12-01T20:43:59.393Z,78.00
2018-12-01T20:46:27.782Z,96.73
2018-12-01T20:48:56.131Z,92.00
2018-12-01T20:51:24.790Z,94.20
2018-12-01T20:53:53.376Z,82.30
2018-12-01T20:56:21.719Z,91.00
2018-12-01T20:58:50.144Z,95.10
2018-12-01T21:01:18.694Z,95.67
2018-12-01T21:03:46.803Z,94.67
2018-12-01T21:06:15.161Z,102.27
2018-12-01T21:08:43.507Z,90.73
2018-12-01T21:11:11.847Z,105.93
2018-12-01T21:13:40.225Z,101.67
2018-12-01T21:16:08.564Z,110.00
2018-12-01T21:18:36.918Z,101.60
2018-12-01T21:21:05.261Z,87.70
2018-12-01T21:23:33.880Z,92.10
2018-12-01T21:26:02.233Z,96.53
2018-12-01T21:28:30.589Z,104.53
2018-12-01T21:31:00.092Z,104.77
2018-12-01T21:33:28.508Z,107.40
2018-12-01T21:35:56.919Z,104.97
2018-12-01T21:38:25.244Z,89.97
2018-12-01T21:40:53.585Z,87.07
2018-12-01T21:43:21.919Z,86.47
2018-12-01T21:45:50.254Z,86.63
2018-12-01T21:48:18.630Z,81.77
2018-12-01T21:50:47.052Z,87.20
2018-12-01T21:53:15.375Z,88.57
2018-12-01T21:55:43.755Z,79.43
2018-12-01T21:58:12.128Z,77.57
2018-12-01T22:00:40.465Z,83.63
2018-12-01T22:03:08.799Z,94.40
2018-12-01T22:05:37.139Z,87.80
2018-12-01T22:08:05.498Z,122.40
2018-12-01T22:10:33.839Z,123.70
2018-12-01T22:13:02.178Z,90.87
2018-12-01T22:15:30.516Z,111.40
2018-12-01T22:17:58.913Z,105.17
2018-12-01T22:20:27.342Z,97.07
2018-12-01T22:22:56.005Z,91.23
2018-12-01T22:25:24.354Z,84.63
2018-12-01T22:27:52.685Z,88.73
2018-12-01T22:30:21.063Z,90.17
2018-12-01T22:32:49.414Z,93.20
2018-12-01T22:35:17.810Z,95.67
2018-12-01T22:37:46.143Z,86.07
2018-12-01T22:40:14.566Z,83.13
2018-12-01T22:42:43.175Z,77.97
2018-12-01T22:45:11.282Z,80.87
2018-12-01T22:47:40.383Z,84.63
2018-12-01T22:50:09.228Z,79.80
2018-12-01T22:52:38.122Z,91.63
2018-12-01T22:55:06.514Z,85.60
2018-12-01T22:57:35.315Z,84.43
2018-12-01T23:00:03.881Z,85.27
2018-12-01T23:02:31.984Z,79.00
2018-12-01T23:05:00.310Z,81.03
2018-12-01T23:07:28.645Z,81.53
2018-12-01T23:09:56.982Z,75.87
2018-12-01T23:12:25.326Z,80.37
2018-12-01T23:14:53.666Z,86.23
2018-12-01T23:17:21.994Z,87.47
2018-12-01T23:19:50.325Z,89.37
2018-12-01T23:22:19.309Z,96.83
2018-12-01T23:24:47.628Z,90.80
2018-12-01T23:27:15.985Z,96.80
2018-12-01T23:29:44.332Z,98.63
2018-12-01T23:32:12.786Z,90.30
2018-12-01T23:34:41.107Z,89.53
2018-12-01T23:37:09.782Z,86.23
2018-12-01T23:39:38.124Z,78.90
2018-12-01T23:42:06.465Z,89.40
2018-12-01T23:44:34.803Z,91.10
2018-12-01T23:47:03.140Z,81.77
2018-12-01T23:49:31.482Z,77.10
2018-12-01T23:51:59.824Z,73.83
2018-12-01T23:54:28.164Z,78.30
2018-12-01T23:56:56.527Z,69.67
2018-12-01T23:59:24.908Z,74.50
